Погода Сосновкана 2 недели

Брестская область, Белоруссия

18 - 31 июля
  • 18июля
    Сегодня
    +15°
    +26°
    Ясно и безоблачно
    ВремяПогодаТемператураВлажностьДавлениеВетер, м/сВероятность осадков
    00:00Облачно с прояснениями, ливень+21°C85 %750 мм1.5 м/с13 %
    03:00Облачно с прояснениями+19°C66 %750 мм3.0 м/с18 %
    06:00Облачно с прояснениями+18°C76 %750 мм1.6 м/с40 %
    09:00Практически безоблачно+20°C81 %750 мм2.6 м/с44 %
    12:00Ясно и безоблачно+24°C52 %751 мм4.4 м/с11 %
    15:00Ясно и безоблачно+26°C43 %750 мм5.8 м/с6 %
    18:00Практически безоблачно+26°C42 %750 мм5.2 м/с2 %
    21:00Ясно и безоблачно+23°C54 %750 мм2.5 м/с2 %
  • 19июля
    Пятница
    +13°
    +26°
    Ясно и безоблачно
    ВремяПогодаТемператураВлажностьДавлениеВетер, м/сВероятность осадков
    00:00Практически безоблачно+19°C67 %751 мм2.6 м/с2 %
    03:00Практически безоблачно+17°C75 %751 мм3.1 м/с2 %
    06:00Облачно с прояснениями+16°C83 %751 мм2.7 м/с2 %
    09:00Облачно с прояснениями+18°C70 %751 мм2.3 м/с2 %
    12:00Ясно и безоблачно+22°C52 %751 мм3.1 м/с2 %
    15:00Ясно и безоблачно+25°C43 %750 мм4.0 м/с2 %
    18:00Ясно и безоблачно+25°C44 %749 мм4.2 м/с2 %
    21:00Ясно и безоблачно+23°C57 %748 мм2.4 м/с2 %
  • 20июля
    Суббота
    +14°
    +26°
    Ясно и безоблачно
    ВремяПогодаТемператураВлажностьДавлениеВетер, м/сВероятность осадков
    00:00Ясно и безоблачно+18°C71 %748 мм2.0 м/с2 %
    03:00Ясно и безоблачно+16°C74 %748 мм2.5 м/с2 %
    06:00Облачно с прояснениями+14°C85 %747 мм2.0 м/с2 %
    09:00Ясно и безоблачно+19°C63 %747 мм2.6 м/с2 %
    12:00Практически безоблачно+22°C44 %747 мм3.3 м/с2 %
    15:00Ясно и безоблачно+25°C36 %746 мм2.9 м/с2 %
    18:00Ясно и безоблачно+26°C34 %745 мм2.6 м/с2 %
    21:00Ясно и безоблачно+23°C60 %744 мм2.0 м/с2 %
  • 21июля
    Воскресенье
    +16°
    +28°
    Небольшая облачность
    ВремяПогодаТемператураВлажностьДавлениеВетер, м/сВероятность осадков
    00:00Ясно и безоблачно+21°C52 %744 мм1.0 м/с2 %
    03:00Ясно и безоблачно+16°C79 %744 мм1.6 м/с2 %
    06:00Ясно и безоблачно+15°C78 %744 мм1.4 м/с2 %
    09:00Ясно и безоблачно+21°C54 %744 мм1.1 м/с2 %
    12:00Практически безоблачно+25°C40 %744 мм1.7 м/с2 %
    15:00Небольшая облачность+26°C36 %743 мм1.6 м/с6 %
    18:00Практически безоблачно+28°C34 %742 мм1.3 м/с3 %
    21:00Небольшая облачность+25°C55 %742 мм1.2 м/с2 %
  • 22июля
    Понедельник
    +18°
    +29°
    Облачно с прояснениями
    ВремяПогодаТемператураВлажностьДавлениеВетер, м/сВероятность осадков
    00:00Ясно и безоблачно+22°C57 %742 мм1.4 м/с2 %
    03:00Ясно и безоблачно+19°C65 %742 мм1.1 м/с2 %
    06:00Ясно и безоблачно+17°C79 %742 мм2.1 м/с2 %
    09:00Ясно и безоблачно+22°C53 %742 мм1.5 м/с2 %
    12:00Ясно и безоблачно+27°C35 %742 мм1.9 м/с4 %
    15:00Облачно с прояснениями+29°C31 %742 мм2.6 м/с7 %
    18:00Облачно с прояснениями+29°C30 %742 мм2.0 м/с15 %
    21:00Небольшая облачность+25°C50 %742 мм1.7 м/с19 %
Мы используем cookies
Соглашаюсь